sensor_id;sensor_type;location;lat;lon;timestamp;P1;durP1;ratioP1;P2;durP2;ratioP2
26540;SDS011;14206;50.202;10.948;2022-12-07T00:01:15;3.88;;;3.10;;
26540;SDS011;14206;50.202;10.948;2022-12-07T00:03:44;3.20;;;2.90;;
26540;SDS011;14206;50.202;10.948;2022-12-07T00:06:13;3.35;;;3.00;;
26540;SDS011;14206;50.202;10.948;2022-12-07T00:08:40;3.65;;;3.17;;
26540;SDS011;14206;50.202;10.948;2022-12-07T00:11:09;3.13;;;2.83;;
26540;SDS011;14206;50.202;10.948;2022-12-07T00:13:38;3.92;;;2.83;;
26540;SDS011;14206;50.202;10.948;2022-12-07T00:16:07;3.13;;;2.83;;
26540;SDS011;14206;50.202;10.948;2022-12-07T00:18:35;3.78;;;2.85;;
26540;SDS011;14206;50.202;10.948;2022-12-07T00:21:04;4.22;;;3.00;;
26540;SDS011;14206;50.202;10.948;2022-12-07T00:23:52;3.17;;;2.88;;
26540;SDS011;14206;50.202;10.948;2022-12-07T00:26:21;3.35;;;2.95;;
26540;SDS011;14206;50.202;10.948;2022-12-07T00:28:51;3.85;;;3.20;;
26540;SDS011;14206;50.202;10.948;2022-12-07T00:31:20;2.97;;;2.67;;
26540;SDS011;14206;50.202;10.948;2022-12-07T00:33:49;3.10;;;2.63;;
26540;SDS011;14206;50.202;10.948;2022-12-07T00:36:17;3.67;;;3.28;;
26540;SDS011;14206;50.202;10.948;2022-12-07T00:38:52;4.70;;;4.00;;
26540;SDS011;14206;50.202;10.948;2022-12-07T00:41:21;4.78;;;4.18;;
26540;SDS011;14206;50.202;10.948;2022-12-07T00:43:49;5.07;;;4.40;;
26540;SDS011;14206;50.202;10.948;2022-12-07T00:46:17;5.25;;;4.30;;
26540;SDS011;14206;50.202;10.948;2022-12-07T00:48:45;6.00;;;5.22;;
26540;SDS011;14206;50.202;10.948;2022-12-07T00:51:13;4.97;;;4.13;;
26540;SDS011;14206;50.202;10.948;2022-12-07T00:53:42;4.55;;;3.97;;
26540;SDS011;14206;50.202;10.948;2022-12-07T00:56:11;4.45;;;3.78;;
26540;SDS011;14206;50.202;10.948;2022-12-07T00:58:39;4.63;;;3.63;;
26540;SDS011;14206;50.202;10.948;2022-12-07T01:01:07;3.75;;;3.22;;
26540;SDS011;14206;50.202;10.948;2022-12-07T01:03:35;3.75;;;3.30;;
26540;SDS011;14206;50.202;10.948;2022-12-07T01:06:03;3.53;;;3.20;;
26540;SDS011;14206;50.202;10.948;2022-12-07T01:08:30;3.88;;;2.90;;
26540;SDS011;14206;50.202;10.948;2022-12-07T01:11:07;3.83;;;2.83;;
26540;SDS011;14206;50.202;10.948;2022-12-07T01:13:35;3.60;;;2.78;;
26540;SDS011;14206;50.202;10.948;2022-12-07T01:16:03;3.45;;;2.95;;
26540;SDS011;14206;50.202;10.948;2022-12-07T01:18:32;3.78;;;2.83;;
26540;SDS011;14206;50.202;10.948;2022-12-07T01:23:32;3.42;;;2.97;;
26540;SDS011;14206;50.202;10.948;2022-12-07T01:26:03;4.00;;;2.95;;
26540;SDS011;14206;50.202;10.948;2022-12-07T01:28:32;3.15;;;2.80;;
26540;SDS011;14206;50.202;10.948;2022-12-07T01:31:00;3.75;;;3.17;;
26540;SDS011;14206;50.202;10.948;2022-12-07T01:33:30;4.00;;;3.33;;
26540;SDS011;14206;50.202;10.948;2022-12-07T01:36:05;3.38;;;3.05;;
26540;SDS011;14206;50.202;10.948;2022-12-07T01:38:32;3.40;;;2.90;;
26540;SDS011;14206;50.202;10.948;2022-12-07T01:41:00;3.60;;;2.80;;
26540;SDS011;14206;50.202;10.948;2022-12-07T01:43:28;3.60;;;3.20;;
26540;SDS011;14206;50.202;10.948;2022-12-07T01:45:57;4.18;;;3.35;;
26540;SDS011;14206;50.202;10.948;2022-12-07T01:48:27;3.65;;;3.17;;
26540;SDS011;14206;50.202;10.948;2022-12-07T01:51:04;3.58;;;3.10;;
26540;SDS011;14206;50.202;10.948;2022-12-07T01:53:38;4.85;;;2.92;;
26540;SDS011;14206;50.202;10.948;2022-12-07T01:56:10;3.92;;;3.00;;
26540;SDS011;14206;50.202;10.948;2022-12-07T01:58:41;3.65;;;3.20;;
26540;SDS011;14206;50.202;10.948;2022-12-07T02:01:09;4.22;;;3.40;;
26540;SDS011;14206;50.202;10.948;2022-12-07T02:03:38;3.95;;;3.30;;
26540;SDS011;14206;50.202;10.948;2022-12-07T02:06:07;3.83;;;3.20;;
26540;SDS011;14206;50.202;10.948;2022-12-07T02:08:35;4.53;;;3.33;;
26540;SDS011;14206;50.202;10.948;2022-12-07T02:11:02;4.90;;;3.78;;
26540;SDS011;14206;50.202;10.948;2022-12-07T02:13:33;4.70;;;3.80;;
26540;SDS011;14206;50.202;10.948;2022-12-07T02:21:30;6.35;;;4.82;;
26540;SDS011;14206;50.202;10.948;2022-12-07T02:40:28;8.60;;;6.65;;
26540;SDS011;14206;50.202;10.948;2022-12-07T02:43:42;7.63;;;6.35;;
26540;SDS011;14206;50.202;10.948;2022-12-07T02:45:52;11.15;;;7.35;;
26540;SDS011;14206;50.202;10.948;2022-12-07T02:48:23;10.35;;;7.95;;
26540;SDS011;14206;50.202;10.948;2022-12-07T02:50:51;9.68;;;8.02;;
26540;SDS011;14206;50.202;10.948;2022-12-07T02:53:32;11.90;;;8.00;;
26540;SDS011;14206;50.202;10.948;2022-12-07T02:58:40;9.52;;;7.07;;
26540;SDS011;14206;50.202;10.948;2022-12-07T03:03:56;7.95;;;6.43;;
26540;SDS011;14206;50.202;10.948;2022-12-07T03:06:36;7.00;;;5.80;;
26540;SDS011;14206;50.202;10.948;2022-12-07T03:09:18;8.82;;;6.93;;
26540;SDS011;14206;50.202;10.948;2022-12-07T03:11:50;9.43;;;7.20;;
26540;SDS011;14206;50.202;10.948;2022-12-07T03:14:30;10.88;;;7.40;;
26540;SDS011;14206;50.202;10.948;2022-12-07T03:17:02;11.48;;;7.68;;
26540;SDS011;14206;50.202;10.948;2022-12-07T03:19:42;8.95;;;6.97;;
26540;SDS011;14206;50.202;10.948;2022-12-07T03:22:12;8.63;;;7.03;;
26540;SDS011;14206;50.202;10.948;2022-12-07T03:24:44;9.35;;;7.22;;
26540;SDS011;14206;50.202;10.948;2022-12-07T03:27:35;10.05;;;7.15;;
26540;SDS011;14206;50.202;10.948;2022-12-07T03:30:08;9.98;;;7.10;;
26540;SDS011;14206;50.202;10.948;2022-12-07T03:35:17;9.82;;;7.93;;
26540;SDS011;14206;50.202;10.948;2022-12-07T03:37:54;10.65;;;8.07;;
26540;SDS011;14206;50.202;10.948;2022-12-07T03:40:27;12.90;;;9.32;;
26540;SDS011;14206;50.202;10.948;2022-12-07T03:42:58;12.75;;;9.00;;
26540;SDS011;14206;50.202;10.948;2022-12-07T03:45:44;11.77;;;8.55;;
26540;SDS011;14206;50.202;10.948;2022-12-07T03:48:20;12.90;;;9.60;;
26540;SDS011;14206;50.202;10.948;2022-12-07T03:51:01;12.13;;;9.05;;
26540;SDS011;14206;50.202;10.948;2022-12-07T03:53:31;11.63;;;8.35;;
26540;SDS011;14206;50.202;10.948;2022-12-07T03:56:02;13.80;;;9.48;;
26540;SDS011;14206;50.202;10.948;2022-12-07T03:58:30;15.05;;;10.75;;
26540;SDS011;14206;50.202;10.948;2022-12-07T04:00:58;13.70;;;9.25;;
26540;SDS011;14206;50.202;10.948;2022-12-07T04:03:25;13.40;;;9.85;;
26540;SDS011;14206;50.202;10.948;2022-12-07T04:05:52;12.50;;;8.82;;
26540;SDS011;14206;50.202;10.948;2022-12-07T04:08:19;11.07;;;8.20;;
26540;SDS011;14206;50.202;10.948;2022-12-07T04:10:46;12.52;;;9.23;;
26540;SDS011;14206;50.202;10.948;2022-12-07T04:13:13;10.75;;;8.07;;
26540;SDS011;14206;50.202;10.948;2022-12-07T04:15:40;13.55;;;8.75;;
26540;SDS011;14206;50.202;10.948;2022-12-07T04:18:07;13.00;;;9.23;;
26540;SDS011;14206;50.202;10.948;2022-12-07T04:20:34;14.63;;;10.70;;
26540;SDS011;14206;50.202;10.948;2022-12-07T04:23:01;13.43;;;9.65;;
26540;SDS011;14206;50.202;10.948;2022-12-07T04:25:28;14.73;;;10.32;;
26540;SDS011;14206;50.202;10.948;2022-12-07T04:27:54;14.75;;;10.20;;
26540;SDS011;14206;50.202;10.948;2022-12-07T04:30:21;13.88;;;10.32;;
26540;SDS011;14206;50.202;10.948;2022-12-07T04:32:48;14.80;;;10.27;;
26540;SDS011;14206;50.202;10.948;2022-12-07T04:35:15;16.52;;;10.93;;
26540;SDS011;14206;50.202;10.948;2022-12-07T04:37:41;13.70;;;9.95;;
26540;SDS011;14206;50.202;10.948;2022-12-07T04:40:08;14.30;;;9.85;;
26540;SDS011;14206;50.202;10.948;2022-12-07T04:42:37;13.15;;;9.82;;
26540;SDS011;14206;50.202;10.948;2022-12-07T04:45:04;13.20;;;9.45;;
26540;SDS011;14206;50.202;10.948;2022-12-07T04:47:32;14.32;;;10.32;;
26540;SDS011;14206;50.202;10.948;2022-12-07T04:49:58;14.75;;;10.10;;
26540;SDS011;14206;50.202;10.948;2022-12-07T04:52:26;14.43;;;9.80;;
26540;SDS011;14206;50.202;10.948;2022-12-07T04:54:53;13.45;;;9.93;;
26540;SDS011;14206;50.202;10.948;2022-12-07T04:57:20;14.52;;;9.77;;
26540;SDS011;14206;50.202;10.948;2022-12-07T04:59:47;14.68;;;9.93;;
26540;SDS011;14206;50.202;10.948;2022-12-07T05:02:13;13.95;;;9.40;;
26540;SDS011;14206;50.202;10.948;2022-12-07T05:04:40;13.63;;;9.82;;
26540;SDS011;14206;50.202;10.948;2022-12-07T05:07:07;13.43;;;9.20;;
26540;SDS011;14206;50.202;10.948;2022-12-07T05:09:34;13.05;;;9.27;;
26540;SDS011;14206;50.202;10.948;2022-12-07T05:12:01;11.60;;;8.75;;
26540;SDS011;14206;50.202;10.948;2022-12-07T05:14:27;12.52;;;9.07;;
26540;SDS011;14206;50.202;10.948;2022-12-07T05:16:54;12.43;;;9.45;;
26540;SDS011;14206;50.202;10.948;2022-12-07T05:19:21;12.60;;;8.57;;
26540;SDS011;14206;50.202;10.948;2022-12-07T05:21:48;11.40;;;8.52;;
26540;SDS011;14206;50.202;10.948;2022-12-07T05:24:15;13.05;;;10.00;;
26540;SDS011;14206;50.202;10.948;2022-12-07T05:26:43;13.82;;;9.88;;
26540;SDS011;14206;50.202;10.948;2022-12-07T05:29:11;14.55;;;9.60;;
26540;SDS011;14206;50.202;10.948;2022-12-07T05:31:39;14.73;;;10.73;;
26540;SDS011;14206;50.202;10.948;2022-12-07T05:34:06;15.90;;;10.70;;
26540;SDS011;14206;50.202;10.948;2022-12-07T05:36:33;14.98;;;10.30;;
26540;SDS011;14206;50.202;10.948;2022-12-07T05:39:00;14.85;;;10.90;;
26540;SDS011;14206;50.202;10.948;2022-12-07T05:41:27;15.77;;;10.73;;
26540;SDS011;14206;50.202;10.948;2022-12-07T05:44:13;16.05;;;10.52;;
26540;SDS011;14206;50.202;10.948;2022-12-07T05:46:40;14.13;;;9.70;;
26540;SDS011;14206;50.202;10.948;2022-12-07T05:49:07;14.90;;;10.70;;
26540;SDS011;14206;50.202;10.948;2022-12-07T05:51:33;14.98;;;11.15;;
26540;SDS011;14206;50.202;10.948;2022-12-07T05:54:00;17.30;;;11.40;;
26540;SDS011;14206;50.202;10.948;2022-12-07T05:56:27;15.85;;;11.25;;
26540;SDS011;14206;50.202;10.948;2022-12-07T05:58:54;17.63;;;11.75;;
26540;SDS011;14206;50.202;10.948;2022-12-07T06:01:39;18.98;;;13.10;;
26540;SDS011;14206;50.202;10.948;2022-12-07T06:04:06;16.95;;;12.23;;
26540;SDS011;14206;50.202;10.948;2022-12-07T06:06:33;18.52;;;12.55;;
26540;SDS011;14206;50.202;10.948;2022-12-07T06:09:00;18.30;;;12.23;;
26540;SDS011;14206;50.202;10.948;2022-12-07T06:11:27;17.35;;;12.68;;
26540;SDS011;14206;50.202;10.948;2022-12-07T06:14:12;18.55;;;12.90;;
26540;SDS011;14206;50.202;10.948;2022-12-07T06:16:39;18.55;;;12.40;;
26540;SDS011;14206;50.202;10.948;2022-12-07T06:19:07;18.70;;;13.07;;
26540;SDS011;14206;50.202;10.948;2022-12-07T06:21:34;17.80;;;12.60;;
26540;SDS011;14206;50.202;10.948;2022-12-07T06:24:00;19.38;;;12.80;;
26540;SDS011;14206;50.202;10.948;2022-12-07T06:26:28;19.38;;;13.38;;
26540;SDS011;14206;50.202;10.948;2022-12-07T06:28:54;19.75;;;13.45;;
26540;SDS011;14206;50.202;10.948;2022-12-07T06:31:21;18.33;;;12.88;;
26540;SDS011;14206;50.202;10.948;2022-12-07T06:33:48;19.20;;;14.02;;
26540;SDS011;14206;50.202;10.948;2022-12-07T06:36:15;19.27;;;12.60;;
26540;SDS011;14206;50.202;10.948;2022-12-07T06:38:42;19.25;;;13.07;;
26540;SDS011;14206;50.202;10.948;2022-12-07T06:41:09;19.33;;;13.20;;
26540;SDS011;14206;50.202;10.948;2022-12-07T06:43:35;17.65;;;13.10;;
26540;SDS011;14206;50.202;10.948;2022-12-07T06:46:02;19.15;;;13.07;;
26540;SDS011;14206;50.202;10.948;2022-12-07T06:48:29;19.15;;;12.70;;
26540;SDS011;14206;50.202;10.948;2022-12-07T06:50:56;19.15;;;13.38;;
26540;SDS011;14206;50.202;10.948;2022-12-07T06:53:23;18.08;;;12.93;;
26540;SDS011;14206;50.202;10.948;2022-12-07T06:55:49;21.20;;;14.00;;
26540;SDS011;14206;50.202;10.948;2022-12-07T06:58:16;19.33;;;13.88;;
26540;SDS011;14206;50.202;10.948;2022-12-07T07:00:44;19.70;;;13.35;;
26540;SDS011;14206;50.202;10.948;2022-12-07T07:03:11;18.95;;;13.40;;
26540;SDS011;14206;50.202;10.948;2022-12-07T07:05:38;18.15;;;12.25;;
26540;SDS011;14206;50.202;10.948;2022-12-07T07:08:05;18.67;;;13.13;;
26540;SDS011;14206;50.202;10.948;2022-12-07T07:10:49;18.42;;;11.80;;
26540;SDS011;14206;50.202;10.948;2022-12-07T07:13:16;19.67;;;13.43;;
26540;SDS011;14206;50.202;10.948;2022-12-07T07:15:42;18.52;;;12.30;;
26540;SDS011;14206;50.202;10.948;2022-12-07T07:18:10;18.42;;;12.52;;
26540;SDS011;14206;50.202;10.948;2022-12-07T07:20:37;18.65;;;13.27;;
26540;SDS011;14206;50.202;10.948;2022-12-07T07:23:04;20.08;;;12.98;;
26540;SDS011;14206;50.202;10.948;2022-12-07T07:25:31;19.05;;;12.98;;
26540;SDS011;14206;50.202;10.948;2022-12-07T07:27:58;18.10;;;12.77;;
26540;SDS011;14206;50.202;10.948;2022-12-07T07:30:25;17.88;;;13.07;;
26540;SDS011;14206;50.202;10.948;2022-12-07T07:32:59;19.98;;;12.80;;
26540;SDS011;14206;50.202;10.948;2022-12-07T07:37:55;19.00;;;12.77;;
26540;SDS011;14206;50.202;10.948;2022-12-07T07:40:22;17.73;;;12.27;;
26540;SDS011;14206;50.202;10.948;2022-12-07T07:42:50;17.20;;;11.82;;
26540;SDS011;14206;50.202;10.948;2022-12-07T07:45:18;18.85;;;12.65;;
26540;SDS011;14206;50.202;10.948;2022-12-07T07:47:45;17.52;;;12.45;;
26540;SDS011;14206;50.202;10.948;2022-12-07T07:50:12;17.60;;;12.48;;
26540;SDS011;14206;50.202;10.948;2022-12-07T07:52:39;18.83;;;13.45;;
26540;SDS011;14206;50.202;10.948;2022-12-07T07:55:06;18.90;;;12.68;;
26540;SDS011;14206;50.202;10.948;2022-12-07T07:57:35;17.10;;;12.23;;
26540;SDS011;14206;50.202;10.948;2022-12-07T08:00:07;17.27;;;12.32;;
26540;SDS011;14206;50.202;10.948;2022-12-07T08:02:38;16.08;;;11.38;;
26540;SDS011;14206;50.202;10.948;2022-12-07T08:05:06;16.65;;;11.38;;
26540;SDS011;14206;50.202;10.948;2022-12-07T08:07:33;16.35;;;11.50;;
26540;SDS011;14206;50.202;10.948;2022-12-07T08:10:00;14.07;;;10.40;;
26540;SDS011;14206;50.202;10.948;2022-12-07T08:12:28;16.02;;;11.57;;
26540;SDS011;14206;50.202;10.948;2022-12-07T08:14:54;15.95;;;10.55;;
26540;SDS011;14206;50.202;10.948;2022-12-07T08:17:21;17.70;;;11.98;;
26540;SDS011;14206;50.202;10.948;2022-12-07T08:19:48;14.82;;;10.45;;
26540;SDS011;14206;50.202;10.948;2022-12-07T08:22:15;16.27;;;11.95;;
26540;SDS011;14206;50.202;10.948;2022-12-07T08:24:42;14.93;;;10.98;;
26540;SDS011;14206;50.202;10.948;2022-12-07T08:27:08;17.85;;;11.95;;
26540;SDS011;14206;50.202;10.948;2022-12-07T08:29:36;16.92;;;12.82;;
26540;SDS011;14206;50.202;10.948;2022-12-07T08:32:02;15.55;;;11.80;;
26540;SDS011;14206;50.202;10.948;2022-12-07T08:34:35;16.42;;;11.48;;
26540;SDS011;14206;50.202;10.948;2022-12-07T08:37:02;15.60;;;11.25;;
26540;SDS011;14206;50.202;10.948;2022-12-07T08:39:28;15.45;;;11.70;;
26540;SDS011;14206;50.202;10.948;2022-12-07T08:41:57;13.68;;;10.35;;
26540;SDS011;14206;50.202;10.948;2022-12-07T08:44:24;16.15;;;11.52;;
26540;SDS011;14206;50.202;10.948;2022-12-07T08:46:53;13.77;;;10.38;;
26540;SDS011;14206;50.202;10.948;2022-12-07T08:49:26;16.85;;;11.88;;
26540;SDS011;14206;50.202;10.948;2022-12-07T08:51:59;17.58;;;12.02;;
26540;SDS011;14206;50.202;10.948;2022-12-07T08:54:25;15.88;;;11.40;;
26540;SDS011;14206;50.202;10.948;2022-12-07T08:56:54;15.35;;;11.32;;
26540;SDS011;14206;50.202;10.948;2022-12-07T08:59:25;15.93;;;11.80;;
26540;SDS011;14206;50.202;10.948;2022-12-07T09:01:53;16.17;;;11.63;;
26540;SDS011;14206;50.202;10.948;2022-12-07T09:04:20;18.63;;;12.15;;
26540;SDS011;14206;50.202;10.948;2022-12-07T09:06:47;16.33;;;11.13;;
26540;SDS011;14206;50.202;10.948;2022-12-07T09:09:14;15.43;;;11.25;;
26540;SDS011;14206;50.202;10.948;2022-12-07T09:11:41;16.00;;;11.73;;
26540;SDS011;14206;50.202;10.948;2022-12-07T09:14:08;14.13;;;9.90;;
26540;SDS011;14206;50.202;10.948;2022-12-07T09:16:35;13.65;;;9.80;;
26540;SDS011;14206;50.202;10.948;2022-12-07T09:19:02;16.33;;;11.32;;
26540;SDS011;14206;50.202;10.948;2022-12-07T09:21:29;15.63;;;10.98;;
26540;SDS011;14206;50.202;10.948;2022-12-07T09:23:56;14.48;;;10.57;;
26540;SDS011;14206;50.202;10.948;2022-12-07T09:26:23;15.38;;;10.90;;
26540;SDS011;14206;50.202;10.948;2022-12-07T09:28:49;13.48;;;9.43;;
26540;SDS011;14206;50.202;10.948;2022-12-07T09:31:16;13.40;;;10.27;;
26540;SDS011;14206;50.202;10.948;2022-12-07T09:33:54;14.40;;;10.80;;
26540;SDS011;14206;50.202;10.948;2022-12-07T09:36:25;14.38;;;10.82;;
26540;SDS011;14206;50.202;10.948;2022-12-07T09:38:53;15.63;;;11.02;;
26540;SDS011;14206;50.202;10.948;2022-12-07T09:41:20;13.43;;;10.35;;
26540;SDS011;14206;50.202;10.948;2022-12-07T09:43:48;13.75;;;10.38;;
26540;SDS011;14206;50.202;10.948;2022-12-07T09:46:16;14.27;;;9.82;;
26540;SDS011;14206;50.202;10.948;2022-12-07T09:48:46;14.23;;;10.40;;
26540;SDS011;14206;50.202;10.948;2022-12-07T09:53:49;15.55;;;10.70;;
26540;SDS011;14206;50.202;10.948;2022-12-07T09:56:17;13.35;;;10.10;;
26540;SDS011;14206;50.202;10.948;2022-12-07T09:58:45;13.90;;;10.77;;
26540;SDS011;14206;50.202;10.948;2022-12-07T10:01:16;14.02;;;10.10;;
26540;SDS011;14206;50.202;10.948;2022-12-07T10:03:54;15.57;;;10.98;;
26540;SDS011;14206;50.202;10.948;2022-12-07T10:06:27;15.00;;;10.45;;
26540;SDS011;14206;50.202;10.948;2022-12-07T10:08:53;12.85;;;9.88;;
26540;SDS011;14206;50.202;10.948;2022-12-07T10:11:20;14.10;;;9.48;;
26540;SDS011;14206;50.202;10.948;2022-12-07T10:13:48;11.68;;;9.45;;
26540;SDS011;14206;50.202;10.948;2022-12-07T10:19:03;12.15;;;9.40;;
26540;SDS011;14206;50.202;10.948;2022-12-07T10:22:04;12.93;;;10.00;;
26540;SDS011;14206;50.202;10.948;2022-12-07T10:24:39;13.45;;;9.35;;
26540;SDS011;14206;50.202;10.948;2022-12-07T10:27:21;13.02;;;9.98;;
26540;SDS011;14206;50.202;10.948;2022-12-07T10:29:55;13.50;;;9.05;;
26540;SDS011;14206;50.202;10.948;2022-12-07T10:32:29;12.02;;;8.60;;
26540;SDS011;14206;50.202;10.948;2022-12-07T10:37:45;12.13;;;9.23;;
26540;SDS011;14206;50.202;10.948;2022-12-07T10:40:34;12.60;;;8.88;;
26540;SDS011;14206;50.202;10.948;2022-12-07T10:43:02;10.48;;;8.55;;
26540;SDS011;14206;50.202;10.948;2022-12-07T10:45:28;11.32;;;8.63;;
26540;SDS011;14206;50.202;10.948;2022-12-07T10:47:59;11.35;;;8.45;;
26540;SDS011;14206;50.202;10.948;2022-12-07T10:54:09;10.80;;;8.63;;
26540;SDS011;14206;50.202;10.948;2022-12-07T11:02:07;8.68;;;7.45;;
26540;SDS011;14206;50.202;10.948;2022-12-07T11:10:24;8.77;;;7.30;;
26540;SDS011;14206;50.202;10.948;2022-12-07T11:16:16;9.32;;;7.30;;
26540;SDS011;14206;50.202;10.948;2022-12-07T11:18:59;9.55;;;7.20;;
26540;SDS011;14206;50.202;10.948;2022-12-07T11:21:37;9.07;;;6.95;;
26540;SDS011;14206;50.202;10.948;2022-12-07T11:24:27;8.63;;;6.88;;
26540;SDS011;14206;50.202;10.948;2022-12-07T11:30:08;7.15;;;6.10;;
26540;SDS011;14206;50.202;10.948;2022-12-07T11:38:01;8.05;;;5.93;;
26540;SDS011;14206;50.202;10.948;2022-12-07T11:40:56;8.27;;;6.20;;
26540;SDS011;14206;50.202;10.948;2022-12-07T11:43:43;7.45;;;5.70;;
26540;SDS011;14206;50.202;10.948;2022-12-07T11:46:20;8.00;;;5.60;;
26540;SDS011;14206;50.202;10.948;2022-12-07T11:48:54;6.85;;;5.93;;
26540;SDS011;14206;50.202;10.948;2022-12-07T11:51:25;9.70;;;5.90;;
26540;SDS011;14206;50.202;10.948;2022-12-07T11:54:00;8.57;;;6.28;;
26540;SDS011;14206;50.202;10.948;2022-12-07T11:56:29;8.02;;;5.93;;
26540;SDS011;14206;50.202;10.948;2022-12-07T12:01:34;6.90;;;5.68;;
26540;SDS011;14206;50.202;10.948;2022-12-07T12:06:35;7.25;;;5.72;;
26540;SDS011;14206;50.202;10.948;2022-12-07T12:20:40;6.88;;;5.18;;
26540;SDS011;14206;50.202;10.948;2022-12-07T12:23:24;6.68;;;5.18;;
26540;SDS011;14206;50.202;10.948;2022-12-07T12:26:06;6.72;;;5.35;;
26540;SDS011;14206;50.202;10.948;2022-12-07T12:28:40;7.60;;;5.68;;
26540;SDS011;14206;50.202;10.948;2022-12-07T12:33:53;7.03;;;5.18;;
26540;SDS011;14206;50.202;10.948;2022-12-07T12:54:20;7.13;;;5.55;;
26540;SDS011;14206;50.202;10.948;2022-12-07T12:59:39;6.85;;;4.72;;
26540;SDS011;14206;50.202;10.948;2022-12-07T13:34:00;2.00;;;1.50;;
26540;SDS011;14206;50.202;10.948;2022-12-07T13:36:33;2.15;;;1.30;;
26540;SDS011;14206;50.202;10.948;2022-12-07T13:39:16;1.42;;;1.33;;
26540;SDS011;14206;50.202;10.948;2022-12-07T13:41:48;2.15;;;1.80;;
26540;SDS011;14206;50.202;10.948;2022-12-07T13:44:18;2.10;;;1.90;;
26540;SDS011;14206;50.202;10.948;2022-12-07T13:49:25;3.65;;;2.88;;
26540;SDS011;14206;50.202;10.948;2022-12-07T13:51:55;4.70;;;2.88;;
26540;SDS011;14206;50.202;10.948;2022-12-07T13:54:46;4.30;;;3.20;;
26540;SDS011;14206;50.202;10.948;2022-12-07T13:57:15;4.22;;;3.58;;
26540;SDS011;14206;50.202;10.948;2022-12-07T13:59:43;4.55;;;3.60;;
26540;SDS011;14206;50.202;10.948;2022-12-07T14:02:18;3.95;;;3.10;;
26540;SDS011;14206;50.202;10.948;2022-12-07T14:05:07;4.80;;;3.55;;
26540;SDS011;14206;50.202;10.948;2022-12-07T14:07:54;4.18;;;3.10;;
26540;SDS011;14206;50.202;10.948;2022-12-07T14:10:25;6.07;;;3.97;;
26540;SDS011;14206;50.202;10.948;2022-12-07T14:12:55;6.03;;;4.18;;
26540;SDS011;14206;50.202;10.948;2022-12-07T14:15:29;4.38;;;2.90;;
26540;SDS011;14206;50.202;10.948;2022-12-07T14:17:59;3.15;;;2.15;;
26540;SDS011;14206;50.202;10.948;2022-12-07T14:23:21;3.47;;;2.28;;
26540;SDS011;14206;50.202;10.948;2022-12-07T14:25:52;2.60;;;2.20;;
26540;SDS011;14206;50.202;10.948;2022-12-07T14:30:54;3.85;;;2.70;;
26540;SDS011;14206;50.202;10.948;2022-12-07T14:33:21;2.95;;;2.28;;
26540;SDS011;14206;50.202;10.948;2022-12-07T14:35:48;5.05;;;3.72;;
26540;SDS011;14206;50.202;10.948;2022-12-07T14:38:15;4.40;;;3.40;;
26540;SDS011;14206;50.202;10.948;2022-12-07T14:40:44;4.13;;;3.70;;
26540;SDS011;14206;50.202;10.948;2022-12-07T14:43:12;4.63;;;3.22;;
26540;SDS011;14206;50.202;10.948;2022-12-07T14:45:40;4.40;;;3.17;;
26540;SDS011;14206;50.202;10.948;2022-12-07T14:48:10;3.38;;;2.70;;
26540;SDS011;14206;50.202;10.948;2022-12-07T14:50:59;3.13;;;2.55;;
26540;SDS011;14206;50.202;10.948;2022-12-07T14:53:47;3.55;;;2.90;;
26540;SDS011;14206;50.202;10.948;2022-12-07T14:56:23;5.43;;;2.75;;
26540;SDS011;14206;50.202;10.948;2022-12-07T14:58:50;4.80;;;3.25;;
26540;SDS011;14206;50.202;10.948;2022-12-07T15:01:17;3.25;;;2.40;;
26540;SDS011;14206;50.202;10.948;2022-12-07T15:03:44;3.67;;;2.40;;
26540;SDS011;14206;50.202;10.948;2022-12-07T15:06:15;3.30;;;2.70;;
26540;SDS011;14206;50.202;10.948;2022-12-07T15:08:43;3.90;;;2.90;;
26540;SDS011;14206;50.202;10.948;2022-12-07T15:11:14;5.40;;;3.00;;
26540;SDS011;14206;50.202;10.948;2022-12-07T15:13:42;6.60;;;3.55;;
26540;SDS011;14206;50.202;10.948;2022-12-07T15:16:27;4.90;;;3.33;;
26540;SDS011;14206;50.202;10.948;2022-12-07T15:19:15;3.67;;;3.10;;
26540;SDS011;14206;50.202;10.948;2022-12-07T15:21:54;4.10;;;3.30;;
26540;SDS011;14206;50.202;10.948;2022-12-07T15:24:21;6.05;;;4.05;;
26540;SDS011;14206;50.202;10.948;2022-12-07T15:26:50;6.45;;;3.92;;
26540;SDS011;14206;50.202;10.948;2022-12-07T15:29:18;5.45;;;3.33;;
26540;SDS011;14206;50.202;10.948;2022-12-07T15:31:49;4.82;;;3.33;;
26540;SDS011;14206;50.202;10.948;2022-12-07T15:34:23;6.30;;;4.13;;
26540;SDS011;14206;50.202;10.948;2022-12-07T15:37:04;5.70;;;3.80;;
26540;SDS011;14206;50.202;10.948;2022-12-07T15:39:32;6.50;;;4.13;;
26540;SDS011;14206;50.202;10.948;2022-12-07T15:41:58;5.22;;;3.63;;
26540;SDS011;14206;50.202;10.948;2022-12-07T15:44:25;6.10;;;3.53;;
26540;SDS011;14206;50.202;10.948;2022-12-07T15:47:11;5.55;;;3.80;;
26540;SDS011;14206;50.202;10.948;2022-12-07T15:49:37;7.38;;;4.03;;
26540;SDS011;14206;50.202;10.948;2022-12-07T15:52:04;4.50;;;3.50;;
26540;SDS011;14206;50.202;10.948;2022-12-07T15:54:31;4.43;;;3.30;;
26540;SDS011;14206;50.202;10.948;2022-12-07T15:56:58;5.07;;;3.78;;
26540;SDS011;14206;50.202;10.948;2022-12-07T15:59:26;6.43;;;4.30;;
26540;SDS011;14206;50.202;10.948;2022-12-07T16:01:54;4.78;;;3.90;;
26540;SDS011;14206;50.202;10.948;2022-12-07T16:04:21;5.03;;;3.53;;
26540;SDS011;14206;50.202;10.948;2022-12-07T16:06:48;8.48;;;4.88;;
26540;SDS011;14206;50.202;10.948;2022-12-07T16:09:17;5.57;;;4.35;;
26540;SDS011;14206;50.202;10.948;2022-12-07T16:11:44;6.65;;;4.80;;
26540;SDS011;14206;50.202;10.948;2022-12-07T16:14:11;8.30;;;5.43;;
26540;SDS011;14206;50.202;10.948;2022-12-07T16:16:38;6.00;;;4.50;;
26540;SDS011;14206;50.202;10.948;2022-12-07T16:19:06;6.57;;;4.60;;
26540;SDS011;14206;50.202;10.948;2022-12-07T16:21:34;6.90;;;4.75;;
26540;SDS011;14206;50.202;10.948;2022-12-07T16:24:02;7.93;;;4.72;;
26540;SDS011;14206;50.202;10.948;2022-12-07T16:26:30;7.82;;;5.40;;
26540;SDS011;14206;50.202;10.948;2022-12-07T16:28:57;6.35;;;4.85;;
26540;SDS011;14206;50.202;10.948;2022-12-07T16:31:25;5.72;;;4.57;;
26540;SDS011;14206;50.202;10.948;2022-12-07T16:33:54;7.30;;;4.82;;
26540;SDS011;14206;50.202;10.948;2022-12-07T16:36:22;5.97;;;4.95;;
26540;SDS011;14206;50.202;10.948;2022-12-07T16:39:11;6.60;;;5.10;;
26540;SDS011;14206;50.202;10.948;2022-12-07T16:41:38;7.18;;;5.10;;
26540;SDS011;14206;50.202;10.948;2022-12-07T16:44:06;7.57;;;5.10;;
26540;SDS011;14206;50.202;10.948;2022-12-07T16:46:35;9.52;;;5.60;;
26540;SDS011;14206;50.202;10.948;2022-12-07T16:49:03;6.70;;;5.15;;
26540;SDS011;14206;50.202;10.948;2022-12-07T16:51:30;8.23;;;4.90;;
26540;SDS011;14206;50.202;10.948;2022-12-07T16:53:57;7.05;;;5.05;;
26540;SDS011;14206;50.202;10.948;2022-12-07T16:56:25;6.72;;;5.10;;
26540;SDS011;14206;50.202;10.948;2022-12-07T16:58:53;7.97;;;4.95;;
26540;SDS011;14206;50.202;10.948;2022-12-07T17:01:21;8.25;;;5.20;;
26540;SDS011;14206;50.202;10.948;2022-12-07T17:03:49;6.93;;;4.93;;
26540;SDS011;14206;50.202;10.948;2022-12-07T17:06:17;7.13;;;5.03;;
26540;SDS011;14206;50.202;10.948;2022-12-07T17:08:46;7.25;;;5.20;;
26540;SDS011;14206;50.202;10.948;2022-12-07T17:11:14;6.93;;;5.10;;